createdAt,value
2024-03-16T00:00:26.097Z,98365.09
2024-03-16T00:02:28.575Z,98361.06
2024-03-16T00:04:37.442Z,98361.22
2024-03-16T00:06:42.561Z,98365.41
2024-03-16T00:08:50.364Z,98373.09
2024-03-16T00:10:53.539Z,98370.00
2024-03-16T00:12:59.541Z,98355.94
2024-03-16T00:15:05.018Z,98349.31
2024-03-16T00:17:10.577Z,98340.31
2024-03-16T00:19:16.409Z,98343.66
2024-03-16T00:21:24.759Z,98340.31
2024-03-16T00:23:27.997Z,98344.59
2024-03-16T00:25:33.184Z,98345.53
2024-03-16T00:27:39.059Z,98347.47
2024-03-16T00:29:44.369Z,98339.44
2024-03-16T00:31:50.368Z,98350.50
2024-03-16T00:33:56.202Z,98359.69
2024-03-16T00:36:01.531Z,98359.81
2024-03-16T00:38:11.787Z,98362.41
2024-03-16T00:40:21.189Z,98360.06
2024-03-16T00:42:27.115Z,98357.44
2024-03-16T00:44:29.833Z,98363.00
2024-03-16T00:46:35.334Z,98356.66
2024-03-16T00:48:41.542Z,98352.38
2024-03-16T00:50:46.690Z,98347.94
2024-03-16T00:52:52.694Z,98343.63
2024-03-16T00:55:01.153Z,98347.34
2024-03-16T00:57:06.612Z,98343.88
2024-03-16T00:59:11.719Z,98342.84
2024-03-16T01:01:18.544Z,98338.53
2024-03-16T01:03:25.030Z,98329.16
2024-03-16T01:05:30.545Z,98333.16
2024-03-16T01:07:35.684Z,98338.06
2024-03-16T01:09:38.523Z,98335.44
2024-03-16T01:11:46.843Z,98327.81
2024-03-16T01:13:52.491Z,98339.38
2024-03-16T01:15:57.867Z,98338.44
2024-03-16T01:18:04.145Z,98335.84
2024-03-16T01:20:10.849Z,98338.19
2024-03-16T01:22:16.414Z,98332.31
2024-03-16T01:24:39.989Z,98339.78
2024-03-16T01:26:48.656Z,98349.00
2024-03-16T01:29:00.776Z,98344.06
2024-03-16T01:31:06.061Z,98344.06
2024-03-16T01:33:11.611Z,98346.50
2024-03-16T01:35:16.897Z,98350.66
2024-03-16T01:37:22.524Z,98347.22
2024-03-16T01:39:31.245Z,98343.84
2024-03-16T01:41:36.486Z,98347.97
2024-03-16T01:43:49.998Z,98342.03
2024-03-16T01:45:55.273Z,98341.94
2024-03-16T01:48:01.774Z,98338.56
2024-03-16T01:50:09.077Z,98338.50
2024-03-16T01:52:14.953Z,98337.56
2024-03-16T01:54:21.292Z,98328.28
2024-03-16T01:56:26.840Z,98324.81
2024-03-16T01:58:32.034Z,98325.53
2024-03-16T02:00:40.342Z,98330.53
2024-03-16T02:02:46.476Z,98327.97
2024-03-16T02:04:51.797Z,98322.75
2024-03-16T02:06:57.626Z,98325.25
2024-03-16T02:09:04.395Z,98325.22
2024-03-16T02:11:09.834Z,98328.47
2024-03-16T02:13:16.132Z,98328.47
2024-03-16T02:15:22.613Z,98327.72
2024-03-16T02:17:29.178Z,98334.28
2024-03-16T02:19:34.498Z,98329.19
2024-03-16T02:21:40.872Z,98335.75
2024-03-16T02:23:46.662Z,98327.28
2024-03-16T02:25:52.220Z,98328.13
2024-03-16T02:28:02.144Z,98328.75
2024-03-16T02:30:11.744Z,98325.38
2024-03-16T02:32:17.193Z,98328.69
2024-03-16T02:34:19.898Z,98330.41
2024-03-16T02:36:25.318Z,98323.66
2024-03-16T02:38:33.395Z,98328.47
2024-03-16T02:40:39.931Z,98328.16
2024-03-16T02:42:44.590Z,98322.63
2024-03-16T02:44:50.155Z,98320.88
2024-03-16T02:46:55.650Z,98319.09
2024-03-16T02:49:03.241Z,98322.38
2024-03-16T02:51:08.627Z,98332.44
2024-03-16T02:53:14.832Z,98327.31
2024-03-16T02:55:23.160Z,98332.34
2024-03-16T02:57:28.859Z,98337.38
2024-03-16T02:59:34.192Z,98328.16
2024-03-16T03:01:40.772Z,98331.38
2024-03-16T03:03:46.037Z,98334.47
2024-03-16T03:05:51.178Z,98338.44
2024-03-16T03:08:01.162Z,98338.34
2024-03-16T03:10:07.688Z,98337.44
2024-03-16T03:12:16.694Z,98333.22
2024-03-16T03:14:22.780Z,98340.66
2024-03-16T03:16:28.252Z,98339.81
2024-03-16T03:18:34.729Z,98344.84
2024-03-16T03:20:46.439Z,98339.69
2024-03-16T03:22:52.109Z,98342.16
2024-03-16T03:24:57.545Z,98339.88
2024-03-16T03:27:03.104Z,98343.28
2024-03-16T03:29:11.917Z,98344.91
2024-03-16T03:31:15.011Z,98343.06
2024-03-16T03:33:20.851Z,98329.53
2024-03-16T03:35:25.999Z,98331.25
2024-03-16T03:37:34.913Z,98341.34
2024-03-16T03:39:40.570Z,98345.56
2024-03-16T03:41:46.149Z,98351.31
2024-03-16T03:44:01.552Z,98348.09
2024-03-16T03:46:14.789Z,98345.59
2024-03-16T03:48:26.845Z,98351.41
2024-03-16T03:50:34.378Z,98339.59
2024-03-16T03:52:40.781Z,98344.63
2024-03-16T03:54:46.087Z,98351.41
2024-03-16T03:56:51.746Z,98349.66
2024-03-16T03:59:07.286Z,98352.16
2024-03-16T04:01:15.523Z,98347.91
2024-03-16T04:03:21.217Z,98353.06
2024-03-16T04:05:27.571Z,98349.66
2024-03-16T04:07:31.334Z,98356.34
2024-03-16T04:09:36.667Z,98354.50
2024-03-16T04:11:43.373Z,98346.22
2024-03-16T04:13:48.524Z,98349.47
2024-03-16T04:15:53.727Z,98349.47
2024-03-16T04:18:01.758Z,98345.97
2024-03-16T04:20:11.194Z,98356.03
2024-03-16T04:22:17.308Z,98359.31
2024-03-16T04:24:22.784Z,98357.88
2024-03-16T04:26:29.047Z,98357.00
2024-03-16T04:28:34.137Z,98359.53
2024-03-16T04:30:39.329Z,98358.78
2024-03-16T04:32:42.667Z,98356.34
2024-03-16T04:34:50.840Z,98356.25
2024-03-16T04:36:54.011Z,98361.28
2024-03-16T04:39:01.057Z,98363.69
2024-03-16T04:41:06.551Z,98369.69
2024-03-16T04:43:11.993Z,98370.75
2024-03-16T04:45:17.375Z,98364.25
2024-03-16T04:47:22.582Z,98358.47
2024-03-16T04:49:27.986Z,98363.59
2024-03-16T04:51:36.378Z,98375.31
2024-03-16T04:53:41.696Z,98375.19
2024-03-16T04:55:44.391Z,98371.72
2024-03-16T04:57:49.946Z,98375.75
2024-03-16T04:59:55.080Z,98378.28
2024-03-16T05:02:00.368Z,98377.56
2024-03-16T05:04:02.958Z,98383.53
2024-03-16T05:06:08.428Z,98377.63
2024-03-16T05:08:15.574Z,98383.53
2024-03-16T05:10:21.627Z,98378.50
2024-03-16T05:12:26.951Z,98377.75
2024-03-16T05:14:34.004Z,98375.19
2024-03-16T05:16:41.802Z,98374.38
2024-03-16T05:18:47.363Z,98381.78
2024-03-16T05:20:54.770Z,98390.28
2024-03-16T05:23:01.878Z,98378.50
2024-03-16T05:25:10.908Z,98383.47
2024-03-16T05:27:16.454Z,98386.81
2024-03-16T05:29:22.138Z,98384.97
2024-03-16T05:31:28.692Z,98390.00
2024-03-16T05:33:36.659Z,98391.56
2024-03-16T05:35:42.567Z,98394.69
2024-03-16T05:37:49.037Z,98391.56
2024-03-16T05:39:52.332Z,98391.56
2024-03-16T05:42:00.717Z,98400.06
2024-03-16T05:44:06.148Z,98395.75
2024-03-16T05:46:11.449Z,98409.28
2024-03-16T05:48:22.098Z,98418.66
2024-03-16T05:50:24.761Z,98411.97
2024-03-16T05:52:30.058Z,98411.13
2024-03-16T05:54:36.038Z,98397.84
2024-03-16T05:56:41.302Z,98415.53
2024-03-16T05:58:49.075Z,98423.22
2024-03-16T06:00:55.219Z,98428.97
2024-03-16T06:03:00.878Z,98432.25
2024-03-16T06:05:06.851Z,98427.97
2024-03-16T06:07:12.793Z,98441.31
2024-03-16T06:09:18.242Z,98433.72
2024-03-16T06:11:28.142Z,98437.03
2024-03-16T06:13:33.562Z,98443.66
2024-03-16T06:15:42.882Z,98442.00
2024-03-16T06:17:50.950Z,98442.00
2024-03-16T06:19:56.215Z,98445.34
2024-03-16T06:22:03.350Z,98445.34
2024-03-16T06:24:09.135Z,98452.72
2024-03-16T06:26:18.795Z,98450.09
2024-03-16T06:28:25.764Z,98453.63
2024-03-16T06:30:29.719Z,98456.88
2024-03-16T06:32:45.953Z,98457.75
2024-03-16T06:34:51.494Z,98458.63
2024-03-16T06:36:57.102Z,98457.72
2024-03-16T06:39:07.556Z,98453.59
2024-03-16T06:41:12.852Z,98460.25
2024-03-16T06:43:18.188Z,98464.28
2024-03-16T06:45:23.523Z,98469.94
2024-03-16T06:47:29.063Z,98471.53
2024-03-16T06:49:38.481Z,98466.56
2024-03-16T06:51:43.653Z,98478.94
2024-03-16T06:53:48.673Z,98485.72
2024-03-16T06:55:55.590Z,98488.22
2024-03-16T06:58:00.802Z,98498.34
2024-03-16T07:00:09.816Z,98494.97
2024-03-16T07:02:15.278Z,98499.81
2024-03-16T07:04:20.843Z,98509.50
2024-03-16T07:06:29.232Z,98517.63
2024-03-16T07:08:32.214Z,98513.34
2024-03-16T07:10:38.077Z,98504.03
2024-03-16T07:12:43.359Z,98518.09
2024-03-16T07:14:49.351Z,98515.50
2024-03-16T07:16:55.206Z,98520.53
2024-03-16T07:19:04.455Z,98520.53
2024-03-16T07:21:10.079Z,98513.34
2024-03-16T07:23:17.923Z,98520.66
2024-03-16T07:25:23.199Z,98519.69
2024-03-16T07:27:26.043Z,98526.16
2024-03-16T07:29:36.358Z,98527.03
2024-03-16T07:31:41.803Z,98537.09
2024-03-16T07:33:48.586Z,98542.22
2024-03-16T07:35:54.280Z,98542.81
2024-03-16T07:37:57.020Z,98550.34
2024-03-16T07:40:05.053Z,98547.16
2024-03-16T07:42:10.257Z,98551.47
2024-03-16T07:44:13.763Z,98559.19
2024-03-16T07:46:20.902Z,98551.94
2024-03-16T07:48:27.545Z,98557.66
2024-03-16T07:50:32.625Z,98554.19
2024-03-16T07:52:38.144Z,98556.34
2024-03-16T07:54:43.313Z,98564.56
2024-03-16T07:56:51.246Z,98566.09
2024-03-16T07:58:58.838Z,98567.44
2024-03-16T08:01:05.929Z,98564.34
2024-03-16T08:03:11.317Z,98566.00
2024-03-16T08:05:16.902Z,98565.69
2024-03-16T08:07:22.856Z,98567.34
2024-03-16T08:09:28.080Z,98568.13
2024-03-16T08:11:34.599Z,98575.56
2024-03-16T08:13:42.430Z,98578.56
2024-03-16T08:15:47.951Z,98576.91
2024-03-16T08:17:53.387Z,98576.81
2024-03-16T08:20:00.303Z,98568.16
2024-03-16T08:22:06.049Z,98580.56
2024-03-16T08:24:11.992Z,98579.09
2024-03-16T08:26:17.372Z,98575.47
2024-03-16T08:28:25.062Z,98589.56
2024-03-16T08:30:33.098Z,98591.31
2024-03-16T08:32:38.322Z,98600.16
2024-03-16T08:34:43.822Z,98609.09
2024-03-16T08:36:49.654Z,98604.16
2024-03-16T08:38:58.034Z,98599.84
2024-03-16T08:41:06.177Z,98599.31
2024-03-16T08:43:12.412Z,98609.81
2024-03-16T08:45:18.222Z,98612.47
2024-03-16T08:47:24.073Z,98611.09
2024-03-16T08:49:29.569Z,98611.28
2024-03-16T08:51:32.286Z,98614.69
2024-03-16T08:53:37.499Z,98614.50
2024-03-16T08:55:42.823Z,98619.00
2024-03-16T08:57:49.379Z,98616.72
2024-03-16T08:59:54.873Z,98622.47
2024-03-16T09:02:00.845Z,98624.75
2024-03-16T09:04:09.752Z,98621.63
2024-03-16T09:06:13.406Z,98627.94
2024-03-16T09:08:18.885Z,98622.91
2024-03-16T09:10:25.338Z,98612.31
2024-03-16T09:12:30.715Z,98629.38
2024-03-16T09:14:36.629Z,98632.47
2024-03-16T09:16:42.864Z,98627.72
2024-03-16T09:18:56.696Z,98627.84
2024-03-16T09:21:06.704Z,98634.59
2024-03-16T09:23:14.980Z,98631.41
2024-03-16T09:25:21.966Z,98625.00
2024-03-16T09:27:31.858Z,98626.25
2024-03-16T09:29:37.228Z,98626.84
2024-03-16T09:31:42.460Z,98627.69
2024-03-16T09:33:48.179Z,98641.06
2024-03-16T09:35:56.643Z,98641.97
2024-03-16T09:38:02.077Z,98641.75
2024-03-16T09:40:11.859Z,98643.28
2024-03-16T09:42:17.747Z,98647.47
